sensor_id;sensor_type;location;lat;lon;timestamp;pressure;altitude;pressure_sealevel;temperature;humidity
55418;BME280;41287;47.554;7.844;2023-04-27T00:00:27;98032.19;;;16.82;61.59
55418;BME280;41287;47.554;7.844;2023-04-27T00:02:52;98031.69;;;16.80;61.67
55418;BME280;41287;47.554;7.844;2023-04-27T00:05:18;98041.41;;;16.81;61.82
55418;BME280;41287;47.554;7.844;2023-04-27T00:07:44;98039.50;;;16.81;61.72
55418;BME280;41287;47.554;7.844;2023-04-27T00:10:11;98036.78;;;16.81;61.78
55418;BME280;41287;47.554;7.844;2023-04-27T00:12:37;98033.28;;;16.81;61.72
55418;BME280;41287;47.554;7.844;2023-04-27T00:15:04;98032.19;;;16.82;61.62
55418;BME280;41287;47.554;7.844;2023-04-27T00:17:29;98036.00;;;16.81;61.82
55418;BME280;41287;47.554;7.844;2023-04-27T00:19:55;98034.09;;;16.81;61.73
55418;BME280;41287;47.554;7.844;2023-04-27T00:22:20;98037.59;;;16.82;61.77
55418;BME280;41287;47.554;7.844;2023-04-27T00:24:45;98034.88;;;16.82;61.88
55418;BME280;41287;47.554;7.844;2023-04-27T00:27:11;98041.09;;;16.82;61.72
55418;BME280;41287;47.554;7.844;2023-04-27T00:29:40;98039.50;;;16.81;61.82
55418;BME280;41287;47.554;7.844;2023-04-27T00:32:09;98044.91;;;16.81;61.80
55418;BME280;41287;47.554;7.844;2023-04-27T00:34:35;98039.50;;;16.81;61.67
55418;BME280;41287;47.554;7.844;2023-04-27T00:37:01;98042.22;;;16.81;61.82
55418;BME280;41287;47.554;7.844;2023-04-27T00:39:26;98051.91;;;16.82;61.73
55418;BME280;41287;47.554;7.844;2023-04-27T00:41:51;98044.91;;;16.81;61.69
55418;BME280;41287;47.554;7.844;2023-04-27T00:44:27;98037.91;;;16.80;61.68
55418;BME280;41287;47.554;7.844;2023-04-27T00:46:52;98042.22;;;16.81;61.74
55418;BME280;41287;47.554;7.844;2023-04-27T00:49:19;98037.59;;;16.82;61.64
55418;BME280;41287;47.554;7.844;2023-04-27T00:51:45;98037.59;;;16.82;61.77
55418;BME280;41287;47.554;7.844;2023-04-27T00:54:12;98036.78;;;16.81;61.93
55418;BME280;41287;47.554;7.844;2023-04-27T00:56:37;98037.28;;;16.83;61.84
55418;BME280;41287;47.554;7.844;2023-04-27T00:59:03;98046.50;;;16.82;61.76
55418;BME280;41287;47.554;7.844;2023-04-27T01:01:29;98040.28;;;16.82;61.78
55418;BME280;41287;47.554;7.844;2023-04-27T01:03:54;98032.97;;;16.82;61.60
55418;BME280;41287;47.554;7.844;2023-04-27T01:06:20;98044.91;;;16.81;61.90
55418;BME280;41287;47.554;7.844;2023-04-27T01:08:47;98034.88;;;16.82;61.84
55418;BME280;41287;47.554;7.844;2023-04-27T01:11:12;98040.28;;;16.82;61.83
55418;BME280;41287;47.554;7.844;2023-04-27T01:13:37;98043.00;;;16.82;61.70
55418;BME280;41287;47.554;7.844;2023-04-27T01:16:03;98043.00;;;16.82;61.78
55418;BME280;41287;47.554;7.844;2023-04-27T01:18:28;98040.28;;;16.82;61.79
55418;BME280;41287;47.554;7.844;2023-04-27T01:20:56;98045.72;;;16.82;61.83
55418;BME280;41287;47.554;7.844;2023-04-27T01:23:21;98044.91;;;16.81;61.75
55418;BME280;41287;47.554;7.844;2023-04-27T01:25:47;98043.00;;;16.82;61.65
55418;BME280;41287;47.554;7.844;2023-04-27T01:28:13;98043.00;;;16.82;61.81
55418;BME280;41287;47.554;7.844;2023-04-27T01:30:38;98046.50;;;16.82;61.83
55418;BME280;41287;47.554;7.844;2023-04-27T01:33:04;98047.63;;;16.81;61.62
55418;BME280;41287;47.554;7.844;2023-04-27T01:35:29;98041.09;;;16.82;61.86
55418;BME280;41287;47.554;7.844;2023-04-27T01:37:55;98048.41;;;16.82;61.80
55418;BME280;41287;47.554;7.844;2023-04-27T01:40:21;98047.31;;;16.83;61.72
55418;BME280;41287;47.554;7.844;2023-04-27T01:42:47;98045.72;;;16.82;61.73
55418;BME280;41287;47.554;7.844;2023-04-27T01:45:12;98050.00;;;16.83;61.91
55418;BME280;41287;47.554;7.844;2023-04-27T01:47:37;98050.81;;;16.83;61.73
55418;BME280;41287;47.554;7.844;2023-04-27T01:50:03;98049.22;;;16.82;61.83
55418;BME280;41287;47.554;7.844;2023-04-27T01:52:29;98048.09;;;16.83;61.71
55418;BME280;41287;47.554;7.844;2023-04-27T01:54:54;98050.00;;;16.83;61.75
55418;BME280;41287;47.554;7.844;2023-04-27T01:57:19;98049.22;;;16.82;61.77
55418;BME280;41287;47.554;7.844;2023-04-27T01:59:45;98056.53;;;16.82;61.83
55418;BME280;41287;47.554;7.844;2023-04-27T02:02:10;98058.94;;;16.83;61.94
55418;BME280;41287;47.554;7.844;2023-04-27T02:04:36;98054.63;;;16.82;61.83
55418;BME280;41287;47.554;7.844;2023-04-27T02:07:01;98060.84;;;16.83;61.85
55418;BME280;41287;47.554;7.844;2023-04-27T02:09:27;98060.84;;;16.83;61.78
55418;BME280;41287;47.554;7.844;2023-04-27T02:11:53;98044.59;;;16.83;61.85
55418;BME280;41287;47.554;7.844;2023-04-27T02:14:18;98044.59;;;16.83;61.77
55418;BME280;41287;47.554;7.844;2023-04-27T02:16:43;98044.59;;;16.83;61.69
55418;BME280;41287;47.554;7.844;2023-04-27T02:19:08;98052.72;;;16.83;61.77
55418;BME280;41287;47.554;7.844;2023-04-27T02:21:34;98043.81;;;16.82;61.83
55418;BME280;41287;47.554;7.844;2023-04-27T02:24:02;98045.41;;;16.83;61.83
55418;BME280;41287;47.554;7.844;2023-04-27T02:26:28;98043.81;;;16.82;61.67
55418;BME280;41287;47.554;7.844;2023-04-27T02:28:54;98044.59;;;16.83;61.86
55418;BME280;41287;47.554;7.844;2023-04-27T02:31:20;98037.28;;;16.83;61.76
55418;BME280;41287;47.554;7.844;2023-04-27T02:33:48;98039.19;;;16.83;61.86
55418;BME280;41287;47.554;7.844;2023-04-27T02:36:13;98034.56;;;16.83;61.91
55418;BME280;41287;47.554;7.844;2023-04-27T02:38:39;98033.78;;;16.83;61.83
55418;BME280;41287;47.554;7.844;2023-04-27T02:41:04;98041.91;;;16.83;61.62
55418;BME280;41287;47.554;7.844;2023-04-27T02:43:29;98039.97;;;16.83;61.69
55418;BME280;41287;47.554;7.844;2023-04-27T02:45:55;98044.59;;;16.83;61.76
55418;BME280;41287;47.554;7.844;2023-04-27T02:48:20;98040.28;;;16.82;61.68
55418;BME280;41287;47.554;7.844;2023-04-27T02:50:45;98033.78;;;16.83;61.76
55418;BME280;41287;47.554;7.844;2023-04-27T02:53:11;98044.59;;;16.83;61.78
55418;BME280;41287;47.554;7.844;2023-04-27T02:55:43;98043.81;;;16.82;61.64
55418;BME280;41287;47.554;7.844;2023-04-27T02:58:10;98039.97;;;16.83;61.80
55418;BME280;41287;47.554;7.844;2023-04-27T03:00:35;98041.91;;;16.83;61.72
55418;BME280;41287;47.554;7.844;2023-04-27T03:03:01;98038.38;;;16.82;61.73
55418;BME280;41287;47.554;7.844;2023-04-27T03:05:27;98038.38;;;16.82;61.75
55418;BME280;41287;47.554;7.844;2023-04-27T03:07:53;98038.06;;;16.84;61.76
55418;BME280;41287;47.554;7.844;2023-04-27T03:10:18;98036.47;;;16.83;61.73
55418;BME280;41287;47.554;7.844;2023-04-27T03:12:43;98037.28;;;16.83;61.68
55418;BME280;41287;47.554;7.844;2023-04-27T03:15:09;98028.38;;;16.83;62.07
55418;BME280;41287;47.554;7.844;2023-04-27T03:17:34;98037.28;;;16.83;61.78
55418;BME280;41287;47.554;7.844;2023-04-27T03:20:00;98048.09;;;16.83;62.01
55418;BME280;41287;47.554;7.844;2023-04-27T03:22:25;98042.69;;;16.83;62.24
55418;BME280;41287;47.554;7.844;2023-04-27T03:24:52;98041.56;;;16.84;61.92
55418;BME280;41287;47.554;7.844;2023-04-27T03:27:17;98039.19;;;16.83;61.93
55418;BME280;41287;47.554;7.844;2023-04-27T03:29:43;98034.56;;;16.83;61.88
55418;BME280;41287;47.554;7.844;2023-04-27T03:32:08;98046.19;;;16.84;61.91
55418;BME280;41287;47.554;7.844;2023-04-27T03:34:34;98041.56;;;16.84;62.18
55418;BME280;41287;47.554;7.844;2023-04-27T03:37:00;98045.41;;;16.83;61.87
55418;BME280;41287;47.554;7.844;2023-04-27T03:39:26;98048.91;;;16.84;61.78
55418;BME280;41287;47.554;7.844;2023-04-27T03:41:52;98053.50;;;16.83;61.86
55418;BME280;41287;47.554;7.844;2023-04-27T03:44:17;98046.50;;;16.82;61.53
55418;BME280;41287;47.554;7.844;2023-04-27T03:46:42;98045.41;;;16.83;61.86
55418;BME280;41287;47.554;7.844;2023-04-27T03:49:07;98047.31;;;16.83;61.84
55418;BME280;41287;47.554;7.844;2023-04-27T03:51:33;98050.00;;;16.83;61.81
55418;BME280;41287;47.554;7.844;2023-04-27T03:54:00;98052.72;;;16.83;61.99
55418;BME280;41287;47.554;7.844;2023-04-27T03:56:28;98048.91;;;16.84;61.79
55418;BME280;41287;47.554;7.844;2023-04-27T03:58:53;98049.22;;;16.82;61.79
55418;BME280;41287;47.554;7.844;2023-04-27T04:01:18;98051.91;;;16.82;61.76
55418;BME280;41287;47.554;7.844;2023-04-27T04:03:46;98060.03;;;16.82;61.88
55418;BME280;41287;47.554;7.844;2023-04-27T04:06:12;98055.09;;;16.84;62.08
55418;BME280;41287;47.554;7.844;2023-04-27T04:08:37;98057.03;;;16.84;62.55
55418;BME280;41287;47.554;7.844;2023-04-27T04:11:03;98059.41;;;16.85;62.61
55418;BME280;41287;47.554;7.844;2023-04-27T04:13:28;98061.31;;;16.85;62.99
55418;BME280;41287;47.554;7.844;2023-04-27T04:16:04;98058.13;;;16.83;63.33
55418;BME280;41287;47.554;7.844;2023-04-27T04:18:30;98057.81;;;16.84;63.10
55418;BME280;41287;47.554;7.844;2023-04-27T04:20:56;98060.53;;;16.84;63.30
55418;BME280;41287;47.554;7.844;2023-04-27T04:23:21;98059.72;;;16.84;63.37
55418;BME280;41287;47.554;7.844;2023-04-27T04:25:47;98063.22;;;16.84;63.32
55418;BME280;41287;47.554;7.844;2023-04-27T04:28:13;98057.03;;;16.84;63.44
55418;BME280;41287;47.554;7.844;2023-04-27T04:30:38;98061.31;;;16.85;63.60
55418;BME280;41287;47.554;7.844;2023-04-27T04:33:04;98061.31;;;16.85;63.58
55418;BME280;41287;47.554;7.844;2023-04-27T04:35:30;98063.22;;;16.84;63.60
55418;BME280;41287;47.554;7.844;2023-04-27T04:37:57;98066.72;;;16.85;63.46
55418;BME280;41287;47.554;7.844;2023-04-27T04:40:23;98063.22;;;16.84;63.64
55418;BME280;41287;47.554;7.844;2023-04-27T04:42:48;98061.63;;;16.83;63.61
55418;BME280;41287;47.554;7.844;2023-04-27T04:45:13;98063.22;;;16.84;63.56
55418;BME280;41287;47.554;7.844;2023-04-27T04:47:39;98059.41;;;16.85;63.62
55418;BME280;41287;47.554;7.844;2023-04-27T04:50:06;98057.81;;;16.84;63.60
55418;BME280;41287;47.554;7.844;2023-04-27T04:52:32;98059.72;;;16.84;63.59
55418;BME280;41287;47.554;7.844;2023-04-27T04:54:58;98070.22;;;16.85;63.67
55418;BME280;41287;47.554;7.844;2023-04-27T04:57:23;98061.31;;;16.85;63.54
55418;BME280;41287;47.554;7.844;2023-04-27T04:59:48;98067.53;;;16.85;63.63
55418;BME280;41287;47.554;7.844;2023-04-27T05:02:14;98071.00;;;16.86;63.65
55418;BME280;41287;47.554;7.844;2023-04-27T05:04:39;98070.22;;;16.85;63.55
55418;BME280;41287;47.554;7.844;2023-04-27T05:07:05;98076.41;;;16.86;63.46
55418;BME280;41287;47.554;7.844;2023-04-27T05:09:30;98082.97;;;16.85;63.50
55418;BME280;41287;47.554;7.844;2023-04-27T05:11:56;98084.53;;;16.86;63.54
55418;BME280;41287;47.554;7.844;2023-04-27T05:14:21;98085.69;;;16.85;63.40
55418;BME280;41287;47.554;7.844;2023-04-27T05:16:46;98081.06;;;16.85;63.42
55418;BME280;41287;47.554;7.844;2023-04-27T05:19:13;98072.13;;;16.85;63.43
55418;BME280;41287;47.554;7.844;2023-04-27T05:21:45;98074.06;;;16.84;63.40
55418;BME280;41287;47.554;7.844;2023-04-27T05:24:11;98075.66;;;16.85;63.15
55418;BME280;41287;47.554;7.844;2023-04-27T05:26:41;98081.81;;;16.86;63.31
55418;BME280;41287;47.554;7.844;2023-04-27T05:29:06;98083.75;;;16.85;63.14
55418;BME280;41287;47.554;7.844;2023-04-27T05:31:32;98088.38;;;16.85;63.17
55418;BME280;41287;47.554;7.844;2023-04-27T05:33:57;98087.25;;;16.86;63.14
55418;BME280;41287;47.554;7.844;2023-04-27T05:36:22;98082.97;;;16.85;63.19
55418;BME280;41287;47.554;7.844;2023-04-27T05:38:50;98082.97;;;16.85;63.16
55418;BME280;41287;47.554;7.844;2023-04-27T05:41:15;98088.03;;;16.86;63.28
55418;BME280;41287;47.554;7.844;2023-04-27T05:43:41;98084.53;;;16.86;63.20
55418;BME280;41287;47.554;7.844;2023-04-27T05:46:06;98086.47;;;16.85;63.22
55418;BME280;41287;47.554;7.844;2023-04-27T05:48:31;98088.38;;;16.85;63.13
55418;BME280;41287;47.554;7.844;2023-04-27T05:51:02;98084.88;;;16.84;63.14
55418;BME280;41287;47.554;7.844;2023-04-27T05:53:31;98088.38;;;16.85;63.11
55418;BME280;41287;47.554;7.844;2023-04-27T05:55:57;98098.06;;;16.86;62.37
55418;BME280;41287;47.554;7.844;2023-04-27T05:58:23;98093.78;;;16.85;63.06
55418;BME280;41287;47.554;7.844;2023-04-27T06:00:48;98090.28;;;16.84;63.20
55418;BME280;41287;47.554;7.844;2023-04-27T06:03:14;98091.09;;;16.85;63.09
55418;BME280;41287;47.554;7.844;2023-04-27T06:05:40;98091.88;;;16.85;63.13
55418;BME280;41287;47.554;7.844;2023-04-27T06:08:05;98097.28;;;16.85;62.97
55418;BME280;41287;47.554;7.844;2023-04-27T06:10:31;98091.88;;;16.85;63.05
55418;BME280;41287;47.554;7.844;2023-04-27T06:12:56;98097.28;;;16.85;63.04
55418;BME280;41287;47.554;7.844;2023-04-27T06:15:21;98103.81;;;16.84;63.10
55418;BME280;41287;47.554;7.844;2023-04-27T06:17:47;98106.19;;;16.86;62.98
55418;BME280;41287;47.554;7.844;2023-04-27T06:20:12;98110.03;;;16.85;63.01
55418;BME280;41287;47.554;7.844;2023-04-27T06:22:37;98106.53;;;16.84;63.04
55418;BME280;41287;47.554;7.844;2023-04-27T06:25:06;98107.31;;;16.85;62.93
55418;BME280;41287;47.554;7.844;2023-04-27T06:27:33;98109.69;;;16.86;63.13
55418;BME280;41287;47.554;7.844;2023-04-27T06:29:58;98108.44;;;16.84;63.06
55418;BME280;41287;47.554;7.844;2023-04-27T06:32:24;98108.13;;;16.85;63.01
55418;BME280;41287;47.554;7.844;2023-04-27T06:34:49;98117.34;;;16.84;63.12
55418;BME280;41287;47.554;7.844;2023-04-27T06:37:14;98123.56;;;16.85;63.07
55418;BME280;41287;47.554;7.844;2023-04-27T06:39:43;98120.84;;;16.85;63.14
55418;BME280;41287;47.554;7.844;2023-04-27T06:42:10;98126.25;;;16.85;63.04
55418;BME280;41287;47.554;7.844;2023-04-27T06:44:36;98133.25;;;16.86;63.09
55418;BME280;41287;47.554;7.844;2023-04-27T06:47:01;98135.94;;;16.86;62.97
55418;BME280;41287;47.554;7.844;2023-04-27T06:49:27;98140.59;;;16.85;62.98
55418;BME280;41287;47.554;7.844;2023-04-27T06:51:52;98128.19;;;16.84;63.13
55418;BME280;41287;47.554;7.844;2023-04-27T06:54:19;98139.00;;;16.84;62.98
55418;BME280;41287;47.554;7.844;2023-04-27T06:56:45;98139.00;;;16.84;62.86
55418;BME280;41287;47.554;7.844;2023-04-27T06:59:10;98131.69;;;16.85;62.98
55418;BME280;41287;47.554;7.844;2023-04-27T07:01:36;98134.03;;;16.86;62.98
55418;BME280;41287;47.554;7.844;2023-04-27T07:04:04;98139.00;;;16.84;63.22
55418;BME280;41287;47.554;7.844;2023-04-27T07:06:30;98132.78;;;16.84;63.06
55418;BME280;41287;47.554;7.844;2023-04-27T07:08:57;98144.06;;;16.86;62.93
55418;BME280;41287;47.554;7.844;2023-04-27T07:11:22;98139.00;;;16.84;63.07
55418;BME280;41287;47.554;7.844;2023-04-27T07:13:50;98143.31;;;16.85;63.07
55418;BME280;41287;47.554;7.844;2023-04-27T07:16:15;98133.59;;;16.84;63.01
55418;BME280;41287;47.554;7.844;2023-04-27T07:18:41;98133.59;;;16.84;62.92
55418;BME280;41287;47.554;7.844;2023-04-27T07:21:07;98148.72;;;16.85;63.04
55418;BME280;41287;47.554;7.844;2023-04-27T07:23:33;98139.78;;;16.85;62.95
55418;BME280;41287;47.554;7.844;2023-04-27T07:26:00;98131.69;;;16.85;62.73
55418;BME280;41287;47.554;7.844;2023-04-27T07:28:27;98134.38;;;16.85;62.95
55418;BME280;41287;47.554;7.844;2023-04-27T07:30:53;98130.88;;;16.84;62.97
55418;BME280;41287;47.554;7.844;2023-04-27T07:33:18;98130.88;;;16.84;63.17
55418;BME280;41287;47.554;7.844;2023-04-27T07:35:44;98124.34;;;16.85;62.88
55418;BME280;41287;47.554;7.844;2023-04-27T07:38:09;98124.34;;;16.85;62.91
55418;BME280;41287;47.554;7.844;2023-04-27T07:40:35;98120.06;;;16.84;62.94
55418;BME280;41287;47.554;7.844;2023-04-27T07:43:01;98121.97;;;16.84;63.09
55418;BME280;41287;47.554;7.844;2023-04-27T07:45:26;98108.44;;;16.84;62.91
55418;BME280;41287;47.554;7.844;2023-04-27T07:47:57;98117.66;;;16.83;62.91
55418;BME280;41287;47.554;7.844;2023-04-27T07:50:24;98105.41;;;16.85;62.91
55418;BME280;41287;47.554;7.844;2023-04-27T07:52:51;98106.53;;;16.84;63.01
55418;BME280;41287;47.554;7.844;2023-04-27T07:55:16;98100.31;;;16.84;63.10
55418;BME280;41287;47.554;7.844;2023-04-27T07:57:43;98097.59;;;16.84;62.94
55418;BME280;41287;47.554;7.844;2023-04-27T08:00:14;98098.41;;;16.84;62.93
55418;BME280;41287;47.554;7.844;2023-04-27T08:02:40;98101.13;;;16.84;63.01
55418;BME280;41287;47.554;7.844;2023-04-27T08:05:05;98101.91;;;16.85;62.90
55418;BME280;41287;47.554;7.844;2023-04-27T08:07:32;98104.94;;;16.83;62.94
55418;BME280;41287;47.554;7.844;2023-04-27T08:09:58;98100.31;;;16.84;62.83
55418;BME280;41287;47.554;7.844;2023-04-27T08:12:23;98103.81;;;16.84;62.78
55418;BME280;41287;47.554;7.844;2023-04-27T08:14:48;98104.94;;;16.83;62.91
55418;BME280;41287;47.554;7.844;2023-04-27T08:17:14;98095.69;;;16.84;62.96
55418;BME280;41287;47.554;7.844;2023-04-27T08:19:39;98104.94;;;16.83;62.84
55418;BME280;41287;47.554;7.844;2023-04-27T08:22:05;98097.59;;;16.84;62.98
55418;BME280;41287;47.554;7.844;2023-04-27T08:24:30;98090.28;;;16.84;62.83
55418;BME280;41287;47.554;7.844;2023-04-27T08:26:56;98091.41;;;16.83;62.81
55418;BME280;41287;47.554;7.844;2023-04-27T08:29:21;98095.69;;;16.84;62.89
55418;BME280;41287;47.554;7.844;2023-04-27T08:31:48;98099.53;;;16.83;62.87
55418;BME280;41287;47.554;7.844;2023-04-27T08:34:15;98093.00;;;16.84;62.93
55418;BME280;41287;47.554;7.844;2023-04-27T08:36:41;98086.00;;;16.83;62.78
55418;BME280;41287;47.554;7.844;2023-04-27T08:39:07;98089.50;;;16.84;63.08
55418;BME280;41287;47.554;7.844;2023-04-27T08:41:33;98083.28;;;16.83;63.08
55418;BME280;41287;47.554;7.844;2023-04-27T08:43:58;98088.69;;;16.83;62.85
55418;BME280;41287;47.554;7.844;2023-04-27T08:46:24;98090.28;;;16.84;62.78
55418;BME280;41287;47.554;7.844;2023-04-27T08:48:54;98081.38;;;16.84;63.00
55418;BME280;41287;47.554;7.844;2023-04-27T08:51:21;98084.88;;;16.84;62.76
55418;BME280;41287;47.554;7.844;2023-04-27T08:53:49;98082.97;;;16.85;63.03
55418;BME280;41287;47.554;7.844;2023-04-27T08:56:15;98074.38;;;16.83;62.86
55418;BME280;41287;47.554;7.844;2023-04-27T08:58:41;98077.88;;;16.83;62.73
55418;BME280;41287;47.554;7.844;2023-04-27T09:01:06;98081.38;;;16.84;62.92
55418;BME280;41287;47.554;7.844;2023-04-27T09:03:33;98077.88;;;16.83;62.81
55418;BME280;41287;47.554;7.844;2023-04-27T09:06:02;98075.16;;;16.83;62.85
55418;BME280;41287;47.554;7.844;2023-04-27T09:08:27;98073.25;;;16.84;62.87
55418;BME280;41287;47.554;7.844;2023-04-27T09:10:53;98080.56;;;16.83;62.86
55418;BME280;41287;47.554;7.844;2023-04-27T09:13:21;98073.25;;;16.84;62.77
55418;BME280;41287;47.554;7.844;2023-04-27T09:15:48;98070.53;;;16.84;62.87
55418;BME280;41287;47.554;7.844;2023-04-27T09:18:19;98077.06;;;16.83;62.81
55418;BME280;41287;47.554;7.844;2023-04-27T09:20:45;98078.66;;;16.84;62.76
55418;BME280;41287;47.554;7.844;2023-04-27T09:23:24;98078.97;;;16.82;62.86
55418;BME280;41287;47.554;7.844;2023-04-27T09:25:57;98078.66;;;16.84;62.90
55418;BME280;41287;47.554;7.844;2023-04-27T09:28:24;98077.56;;;16.85;62.90
55418;BME280;41287;47.554;7.844;2023-04-27T09:30:56;98073.56;;;16.82;62.81
55418;BME280;41287;47.554;7.844;2023-04-27T09:33:29;98079.78;;;16.83;62.91
55418;BME280;41287;47.554;7.844;2023-04-27T09:35:56;98068.97;;;16.83;62.91
55418;BME280;41287;47.554;7.844;2023-04-27T09:38:22;98073.56;;;16.82;62.77
55418;BME280;41287;47.554;7.844;2023-04-27T09:40:49;98077.88;;;16.83;62.92
55418;BME280;41287;47.554;7.844;2023-04-27T09:43:15;98077.88;;;16.83;62.93
55418;BME280;41287;47.554;7.844;2023-04-27T09:45:41;98071.66;;;16.83;62.93
55418;BME280;41287;47.554;7.844;2023-04-27T09:48:07;98071.66;;;16.83;62.84
55418;BME280;41287;47.554;7.844;2023-04-27T09:50:34;98067.84;;;16.84;62.80
55418;BME280;41287;47.554;7.844;2023-04-27T09:53:01;98064.34;;;16.83;62.87
55418;BME280;41287;47.554;7.844;2023-04-27T09:55:31;98068.97;;;16.83;62.77
55418;BME280;41287;47.554;7.844;2023-04-27T09:58:26;98066.25;;;16.83;62.90
55418;BME280;41287;47.554;7.844;2023-04-27T10:03:49;98063.53;;;16.83;62.77
55418;BME280;41287;47.554;7.844;2023-04-27T10:06:45;98067.34;;;16.82;62.80
55418;BME280;41287;47.554;7.844;2023-04-27T10:09:19;98061.63;;;16.83;62.80
55418;BME280;41287;47.554;7.844;2023-04-27T10:11:48;98061.94;;;16.82;62.85
55418;BME280;41287;47.554;7.844;2023-04-27T10:14:31;98063.06;;;16.81;63.00
55418;BME280;41287;47.554;7.844;2023-04-27T10:16:57;98062.75;;;16.82;62.92
55418;BME280;41287;47.554;7.844;2023-04-27T10:19:24;98054.63;;;16.82;62.67
55418;BME280;41287;47.554;7.844;2023-04-27T10:21:51;98047.31;;;16.83;62.53
55418;BME280;41287;47.554;7.844;2023-04-27T10:24:17;98055.44;;;16.83;62.79
55418;BME280;41287;47.554;7.844;2023-04-27T10:26:46;98049.22;;;16.82;62.83
55418;BME280;41287;47.554;7.844;2023-04-27T10:29:12;98043.81;;;16.82;62.77
55418;BME280;41287;47.554;7.844;2023-04-27T10:31:44;98041.09;;;16.82;62.88
55418;BME280;41287;47.554;7.844;2023-04-27T10:34:16;98040.28;;;16.82;62.83
55418;BME280;41287;47.554;7.844;2023-04-27T10:36:42;98041.09;;;16.82;62.85
55418;BME280;41287;47.554;7.844;2023-04-27T10:39:20;98042.22;;;16.81;62.86
55418;BME280;41287;47.554;7.844;2023-04-27T10:41:51;98046.50;;;16.82;62.73
55418;BME280;41287;47.554;7.844;2023-04-27T10:44:27;98034.88;;;16.82;62.73
55418;BME280;41287;47.554;7.844;2023-04-27T10:46:54;98034.88;;;16.82;62.81
55418;BME280;41287;47.554;7.844;2023-04-27T10:49:20;98030.28;;;16.82;62.84
55418;BME280;41287;47.554;7.844;2023-04-27T10:51:48;98038.38;;;16.82;62.93
55418;BME280;41287;47.554;7.844;2023-04-27T10:54:14;98029.47;;;16.82;62.76
55418;BME280;41287;47.554;7.844;2023-04-27T10:56:40;98036.47;;;16.83;62.88
55418;BME280;41287;47.554;7.844;2023-04-27T10:59:06;98027.56;;;16.82;62.77
55418;BME280;41287;47.554;7.844;2023-04-27T11:01:35;98027.56;;;16.82;62.92
55418;BME280;41287;47.554;7.844;2023-04-27T11:04:02;98024.88;;;16.82;62.72
55418;BME280;41287;47.554;7.844;2023-04-27T11:06:28;98025.66;;;16.83;62.76
55418;BME280;41287;47.554;7.844;2023-04-27T11:09:03;98022.94;;;16.83;62.88
55418;BME280;41287;47.554;7.844;2023-04-27T11:11:30;98022.94;;;16.83;62.85
55418;BME280;41287;47.554;7.844;2023-04-27T11:13:55;98024.88;;;16.82;62.85
55418;BME280;41287;47.554;7.844;2023-04-27T11:16:22;98019.44;;;16.82;62.87
55418;BME280;41287;47.554;7.844;2023-04-27T11:18:47;98017.53;;;16.83;62.72
55418;BME280;41287;47.554;7.844;2023-04-27T11:21:15;98016.75;;;16.82;62.80
55418;BME280;41287;47.554;7.844;2023-04-27T11:23:41;98012.13;;;16.83;62.76
55418;BME280;41287;47.554;7.844;2023-04-27T11:26:27;98004.63;;;16.80;62.93
55418;BME280;41287;47.554;7.844;2023-04-27T11:28:58;98012.94;;;16.83;62.70
55418;BME280;41287;47.554;7.844;2023-04-27T11:31:24;98005.13;;;16.82;62.85
55418;BME280;41287;47.554;7.844;2023-04-27T11:33:50;98008.31;;;16.84;62.78
55418;BME280;41287;47.554;7.844;2023-04-27T11:36:21;98005.91;;;16.82;62.92
55418;BME280;41287;47.554;7.844;2023-04-27T11:38:47;98003.22;;;16.82;62.65
55418;BME280;41287;47.554;7.844;2023-04-27T11:41:12;98003.22;;;16.82;62.84
55418;BME280;41287;47.554;7.844;2023-04-27T11:43:42;97997.81;;;16.82;62.54
55418;BME280;41287;47.554;7.844;2023-04-27T11:46:10;97989.69;;;16.82;62.77
55418;BME280;41287;47.554;7.844;2023-04-27T11:48:37;97994.28;;;16.82;62.72
55418;BME280;41287;47.554;7.844;2023-04-27T11:51:03;97985.06;;;16.83;62.77
55418;BME280;41287;47.554;7.844;2023-04-27T11:53:32;97993.19;;;16.83;62.70
55418;BME280;41287;47.554;7.844;2023-04-27T11:56:05;97983.78;;;16.80;62.94
55418;BME280;41287;47.554;7.844;2023-04-27T11:58:33;97978.84;;;16.82;62.65
55418;BME280;41287;47.554;7.844;2023-04-27T12:00:59;97985.06;;;16.83;62.78
55418;BME280;41287;47.554;7.844;2023-04-27T12:03:24;97982.34;;;16.83;62.73
55418;BME280;41287;47.554;7.844;2023-04-27T12:05:50;97985.06;;;16.83;62.78
55418;BME280;41287;47.554;7.844;2023-04-27T12:08:19;97976.16;;;16.82;62.94
55418;BME280;41287;47.554;7.844;2023-04-27T12:10:45;97983.16;;;16.83;62.77
55418;BME280;41287;47.554;7.844;2023-04-27T12:13:10;97985.06;;;16.83;62.70
55418;BME280;41287;47.554;7.844;2023-04-27T12:15:37;97982.34;;;16.83;62.73
55418;BME280;41287;47.554;7.844;2023-04-27T12:18:02;97989.38;;;16.84;62.78
55418;BME280;41287;47.554;7.844;2023-04-27T12:20:28;97988.56;;;16.83;62.73
55418;BME280;41287;47.554;7.844;2023-04-27T12:22:53;97988.56;;;16.83;62.86
55418;BME280;41287;47.554;7.844;2023-04-27T12:25:19;97986.19;;;16.82;62.65
55418;BME280;41287;47.554;7.844;2023-04-27T12:27:45;97984.28;;;16.82;62.72
55418;BME280;41287;47.554;7.844;2023-04-27T12:30:14;97980.44;;;16.83;62.75
55418;BME280;41287;47.554;7.844;2023-04-27T12:32:40;97985.06;;;16.83;62.79
55418;BME280;41287;47.554;7.844;2023-04-27T12:35:06;97984.28;;;16.82;62.68
55418;BME280;41287;47.554;7.844;2023-04-27T12:37:32;97976.94;;;16.83;62.80
55418;BME280;41287;47.554;7.844;2023-04-27T12:39:57;97980.44;;;16.83;62.22
55418;BME280;41287;47.554;7.844;2023-04-27T12:42:24;97966.91;;;16.83;62.70
55418;BME280;41287;47.554;7.844;2023-04-27T12:44:51;97976.94;;;16.83;62.79
55418;BME280;41287;47.554;7.844;2023-04-27T12:47:17;97981.56;;;16.82;62.84
55418;BME280;41287;47.554;7.844;2023-04-27T12:49:43;97971.53;;;16.83;62.70
55418;BME280;41287;47.554;7.844;2023-04-27T12:52:09;97976.94;;;16.83;62.73
55418;BME280;41287;47.554;7.844;2023-04-27T12:54:37;97979.66;;;16.83;62.80
55418;BME280;41287;47.554;7.844;2023-04-27T12:57:02;97968.03;;;16.82;62.77
55418;BME280;41287;47.554;7.844;2023-04-27T12:59:30;97975.84;;;16.84;62.82